createdAt,value
2022-09-15T00:01:40.135Z,10.90
2022-09-15T00:04:08.103Z,10.90
2022-09-15T00:06:35.940Z,10.90
2022-09-15T00:09:04.008Z,10.80
2022-09-15T00:11:35.199Z,10.80
2022-09-15T00:14:04.850Z,10.80
2022-09-15T00:16:32.941Z,10.80
2022-09-15T00:19:00.671Z,10.80
2022-09-15T00:21:31.415Z,10.80
2022-09-15T00:24:00.619Z,10.80
2022-09-15T00:26:29.512Z,10.80
2022-09-15T00:28:58.274Z,10.90
2022-09-15T00:31:27.188Z,10.80
2022-09-15T00:33:57.559Z,10.80
2022-09-15T00:36:26.817Z,10.80
2022-09-15T00:38:54.373Z,10.80
2022-09-15T00:41:23.665Z,10.80
2022-09-15T00:43:56.109Z,10.70
2022-09-15T00:46:29.581Z,10.70
2022-09-15T00:49:29.780Z,10.70
2022-09-15T00:52:07.625Z,10.70
2022-09-15T00:54:51.731Z,10.60
2022-09-15T00:57:45.424Z,10.60
2022-09-15T01:00:18.879Z,10.60
2022-09-15T01:02:48.229Z,10.60
2022-09-15T01:05:18.438Z,10.60
2022-09-15T01:07:58.156Z,10.60
2022-09-15T01:10:38.018Z,10.70
2022-09-15T01:13:09.015Z,10.70
2022-09-15T01:15:42.373Z,10.70
2022-09-15T01:18:45.879Z,10.70
2022-09-15T01:21:19.854Z,10.70
2022-09-15T01:24:05.544Z,10.70
2022-09-15T01:27:00.453Z,10.70
2022-09-15T01:29:42.744Z,10.70
2022-09-15T01:32:59.813Z,10.70
2022-09-15T01:35:33.593Z,10.60
2022-09-15T01:38:43.883Z,10.60
2022-09-15T01:41:11.082Z,10.60
2022-09-15T01:43:49.398Z,10.60
2022-09-15T01:46:20.689Z,10.60
2022-09-15T01:48:49.559Z,10.60
2022-09-15T01:51:17.738Z,10.60
2022-09-15T01:53:47.269Z,10.60
2022-09-15T01:56:14.403Z,10.50
2022-09-15T01:58:42.370Z,10.50
2022-09-15T02:01:14.100Z,10.50
2022-09-15T02:03:49.247Z,10.50
2022-09-15T02:06:37.406Z,10.50
2022-09-15T02:09:22.003Z,10.50
2022-09-15T02:12:18.901Z,10.50
2022-09-15T02:15:03.548Z,10.50
2022-09-15T02:17:35.673Z,10.40
2022-09-15T02:20:16.411Z,10.40
2022-09-15T02:22:50.604Z,10.40
2022-09-15T02:25:29.229Z,10.40
2022-09-15T02:28:02.887Z,10.30
2022-09-15T02:30:31.998Z,10.30
2022-09-15T02:33:04.166Z,10.30
2022-09-15T02:35:35.081Z,10.20
2022-09-15T02:38:05.385Z,10.20
2022-09-15T02:40:33.004Z,10.20
2022-09-15T02:43:02.129Z,10.20
2022-09-15T02:45:31.226Z,10.10
2022-09-15T02:47:59.070Z,10.10
2022-09-15T02:50:26.920Z,10.10
2022-09-15T02:52:57.618Z,10.20
2022-09-15T02:55:29.129Z,10.20
2022-09-15T02:57:57.917Z,10.20
2022-09-15T03:00:26.380Z,10.20
2022-09-15T03:02:54.527Z,10.20
2022-09-15T03:05:25.714Z,10.10
2022-09-15T03:07:54.336Z,10.10
2022-09-15T03:10:23.464Z,10.10
2022-09-15T03:12:53.504Z,10.10
2022-09-15T03:15:24.159Z,10.00
2022-09-15T03:17:52.673Z,10.00
2022-09-15T03:20:23.849Z,10.00
2022-09-15T03:22:51.430Z,10.00
2022-09-15T03:25:18.866Z,10.00
2022-09-15T03:27:46.407Z,10.00
2022-09-15T03:30:14.315Z,10.00
2022-09-15T03:32:41.479Z,10.00
2022-09-15T03:35:08.999Z,10.00
2022-09-15T03:37:36.457Z,10.00
2022-09-15T03:40:05.105Z,10.00
2022-09-15T03:42:32.483Z,10.00
2022-09-15T03:44:59.588Z,9.90
2022-09-15T03:47:26.700Z,9.90
2022-09-15T03:49:53.851Z,9.90
2022-09-15T03:52:20.993Z,9.90
2022-09-15T03:54:48.969Z,9.90
2022-09-15T03:57:16.514Z,9.90
2022-09-15T03:59:44.221Z,9.80
2022-09-15T04:02:11.443Z,9.80
2022-09-15T04:04:38.726Z,9.80
2022-09-15T04:07:06.490Z,9.80
2022-09-15T04:09:33.751Z,9.80
2022-09-15T04:12:00.852Z,9.80
2022-09-15T04:14:27.981Z,9.80
2022-09-15T04:16:55.342Z,9.80
2022-09-15T04:19:22.466Z,9.80
2022-09-15T04:21:49.717Z,9.80
2022-09-15T04:24:17.238Z,9.80
2022-09-15T04:26:45.330Z,9.80
2022-09-15T04:29:14.831Z,9.80
2022-09-15T04:31:42.248Z,9.80
2022-09-15T04:34:09.529Z,9.80
2022-09-15T04:36:37.146Z,9.80
2022-09-15T04:39:06.140Z,9.80
2022-09-15T04:41:33.829Z,9.80
2022-09-15T04:44:01.154Z,9.80
2022-09-15T04:46:28.307Z,9.80
2022-09-15T04:48:56.216Z,9.80
2022-09-15T04:51:24.004Z,9.80
2022-09-15T04:53:52.017Z,9.80
2022-09-15T04:56:22.568Z,9.80
2022-09-15T04:58:59.689Z,9.80
2022-09-15T05:01:32.685Z,9.80
2022-09-15T05:04:04.007Z,9.90
2022-09-15T05:06:31.727Z,9.90
2022-09-15T05:08:58.935Z,9.90
2022-09-15T05:11:31.101Z,9.80
2022-09-15T05:13:58.353Z,9.90
2022-09-15T05:16:29.194Z,9.90
2022-09-15T05:19:01.787Z,9.90
2022-09-15T05:21:29.420Z,9.90
2022-09-15T05:23:56.946Z,9.90
2022-09-15T05:26:26.976Z,9.90
2022-09-15T05:28:55.129Z,10.00
2022-09-15T05:31:27.160Z,10.00
2022-09-15T05:33:55.395Z,10.00
2022-09-15T05:36:25.981Z,10.00
2022-09-15T05:38:55.847Z,10.00
2022-09-15T05:41:24.103Z,9.90
2022-09-15T05:43:52.370Z,10.00
2022-09-15T05:46:20.625Z,10.00
2022-09-15T05:48:48.297Z,10.00
2022-09-15T05:51:15.501Z,10.00
2022-09-15T05:53:42.892Z,10.00
2022-09-15T05:56:15.930Z,10.00
2022-09-15T05:58:46.123Z,10.00
2022-09-15T06:01:22.110Z,10.00
2022-09-15T06:03:49.824Z,10.00
2022-09-15T06:06:17.004Z,10.00
2022-09-15T06:08:50.934Z,9.90
2022-09-15T06:11:22.685Z,9.90
2022-09-15T06:13:50.452Z,9.90
2022-09-15T06:16:20.928Z,9.90
2022-09-15T06:18:51.039Z,9.90
2022-09-15T06:51:44.482Z,10.00
2022-09-15T06:54:12.079Z,10.00
2022-09-15T06:56:39.239Z,10.10
2022-09-15T06:59:06.852Z,10.10
2022-09-15T07:01:34.005Z,10.10
2022-09-15T07:04:04.273Z,10.20
2022-09-15T07:06:33.160Z,10.20
2022-09-15T07:09:02.608Z,10.20
2022-09-15T07:11:30.310Z,10.30
2022-09-15T07:13:57.937Z,10.30
2022-09-15T07:16:28.091Z,10.30
2022-09-15T07:19:02.092Z,10.40
2022-09-15T07:21:29.433Z,10.40
2022-09-15T07:24:02.625Z,10.50
2022-09-15T07:26:34.004Z,10.50
2022-09-15T07:29:04.074Z,10.50
2022-09-15T07:31:33.633Z,10.60
2022-09-15T07:34:01.563Z,10.60
2022-09-15T07:36:29.977Z,10.70
2022-09-15T07:38:57.918Z,10.70
2022-09-15T07:41:30.419Z,10.80
2022-09-15T07:43:59.762Z,10.80
2022-09-15T07:46:30.241Z,10.90
2022-09-15T07:48:57.585Z,10.90
2022-09-15T07:51:25.906Z,11.00
2022-09-15T07:53:53.521Z,11.00
2022-09-15T07:56:22.319Z,11.10
2022-09-15T07:58:51.136Z,11.10
2022-09-15T08:01:20.264Z,11.10
2022-09-15T08:03:50.104Z,11.20
2022-09-15T08:06:20.168Z,11.30
2022-09-15T08:08:47.514Z,11.30
2022-09-15T08:11:20.013Z,11.40
2022-09-15T08:13:49.802Z,11.50
2022-09-15T08:16:23.478Z,11.50
2022-09-15T08:18:53.280Z,11.50
2022-09-15T08:21:22.702Z,11.60
2022-09-15T08:23:56.178Z,11.60
2022-09-15T08:26:24.819Z,11.60
2022-09-15T08:28:52.735Z,11.70
2022-09-15T08:31:20.990Z,11.70
2022-09-15T08:33:53.188Z,11.70
2022-09-15T08:36:20.647Z,11.70
2022-09-15T08:38:48.475Z,11.80
2022-09-15T08:41:29.981Z,11.80
2022-09-15T08:43:59.999Z,11.80
2022-09-15T08:46:37.251Z,11.90
2022-09-15T08:49:27.006Z,11.90
2022-09-15T08:52:11.320Z,12.00
2022-09-15T08:54:39.127Z,12.00
2022-09-15T08:57:14.322Z,12.00
2022-09-15T08:59:41.549Z,12.10
2022-09-15T09:02:30.172Z,12.00
2022-09-15T09:05:03.244Z,12.00
2022-09-15T09:07:50.623Z,12.00
2022-09-15T09:10:39.884Z,12.10
2022-09-15T09:13:38.557Z,12.20
2022-09-15T09:16:40.542Z,12.20
2022-09-15T09:19:36.477Z,12.20
2022-09-15T09:22:13.195Z,12.20
2022-09-15T09:24:46.464Z,12.30
2022-09-15T09:27:18.275Z,12.30
2022-09-15T09:29:50.798Z,12.30
2022-09-15T09:32:25.209Z,12.30
2022-09-15T09:35:03.388Z,12.30
2022-09-15T09:37:31.234Z,12.30
2022-09-15T09:39:58.394Z,12.40
2022-09-15T09:42:30.461Z,12.40
2022-09-15T09:44:58.105Z,12.40
2022-09-15T09:47:30.084Z,12.40
2022-09-15T09:49:57.288Z,12.40
2022-09-15T09:52:35.195Z,12.40
2022-09-15T09:55:23.572Z,12.40
2022-09-15T09:57:51.142Z,12.30
2022-09-15T10:00:33.833Z,12.30
2022-09-15T10:03:10.201Z,12.30
2022-09-15T10:05:37.822Z,12.50
2022-09-15T10:08:04.910Z,12.40
2022-09-15T10:11:04.221Z,12.30
2022-09-15T10:13:31.510Z,12.20
2022-09-15T10:16:02.510Z,12.10
2022-09-15T10:18:38.183Z,12.00
2022-09-15T10:21:08.497Z,12.00
2022-09-15T10:23:36.497Z,11.90
2022-09-15T10:26:20.276Z,11.70
2022-09-15T10:29:17.573Z,11.50
2022-09-15T10:31:46.310Z,11.20
2022-09-15T10:34:33.669Z,11.20
2022-09-15T10:37:20.261Z,11.20
2022-09-15T10:39:53.611Z,11.20
2022-09-15T10:42:35.785Z,11.30
2022-09-15T10:45:18.578Z,11.50
2022-09-15T10:48:07.678Z,11.60
2022-09-15T10:51:06.027Z,11.80
2022-09-15T10:54:10.642Z,11.90
2022-09-15T10:56:44.653Z,11.80
2022-09-15T10:59:43.522Z,11.50
2022-09-15T11:02:32.989Z,11.30
2022-09-15T11:05:22.677Z,11.20
2022-09-15T11:08:25.593Z,11.10
2022-09-15T11:11:03.355Z,11.00
2022-09-15T11:14:04.805Z,11.00
2022-09-15T11:17:00.222Z,11.10
2022-09-15T11:19:46.322Z,11.30
2022-09-15T11:22:27.757Z,11.30
2022-09-15T11:25:06.533Z,11.40
2022-09-15T11:27:42.792Z,11.60
2022-09-15T11:30:25.911Z,11.70
2022-09-15T11:33:07.726Z,11.90
2022-09-15T11:36:00.484Z,12.00
2022-09-15T11:38:49.987Z,12.00
2022-09-15T11:41:22.645Z,11.90
2022-09-15T11:44:16.095Z,11.90
2022-09-15T11:47:08.078Z,11.80
2022-09-15T11:50:04.443Z,11.70
2022-09-15T11:52:54.539Z,11.80
2022-09-15T11:55:43.644Z,11.90
2022-09-15T11:58:34.235Z,11.90
2022-09-15T12:01:10.757Z,12.00
2022-09-15T12:03:58.834Z,12.20
2022-09-15T12:06:48.850Z,12.30
2022-09-15T12:09:21.466Z,12.20
2022-09-15T12:11:53.057Z,12.10
2022-09-15T12:14:28.532Z,11.90
2022-09-15T12:17:02.113Z,11.90
2022-09-15T12:20:01.102Z,11.80
2022-09-15T12:22:42.029Z,11.90
2022-09-15T12:25:34.020Z,12.00
2022-09-15T12:28:24.317Z,12.20
2022-09-15T12:31:13.510Z,12.40
2022-09-15T12:34:04.996Z,12.50
2022-09-15T12:36:47.391Z,12.50
2022-09-15T12:39:23.982Z,12.50
2022-09-15T12:41:54.260Z,12.40
2022-09-15T12:44:34.171Z,12.30
2022-09-15T12:47:03.350Z,12.40
2022-09-15T12:49:42.145Z,12.50
2022-09-15T12:52:10.525Z,12.60
2022-09-15T12:54:39.945Z,12.60
2022-09-15T12:57:21.960Z,12.60
2022-09-15T12:59:49.404Z,12.60
2022-09-15T13:02:42.664Z,12.70
2022-09-15T13:05:11.964Z,12.80
2022-09-15T13:07:54.959Z,12.80
2022-09-15T13:10:39.549Z,12.90
2022-09-15T13:13:35.077Z,13.00
2022-09-15T13:16:06.705Z,13.10
2022-09-15T13:18:34.545Z,13.00
2022-09-15T13:21:07.530Z,12.80
2022-09-15T13:23:38.355Z,12.10
2022-09-15T13:26:09.499Z,11.70
2022-09-15T13:28:38.146Z,11.50
2022-09-15T13:31:29.880Z,11.30
2022-09-15T13:40:39.661Z,11.40
2022-09-15T13:43:31.146Z,11.60
2022-09-15T13:46:21.703Z,11.70
2022-09-15T13:49:04.539Z,11.80
2022-09-15T13:51:33.340Z,11.90
2022-09-15T13:54:06.310Z,12.00
2022-09-15T13:56:38.555Z,11.80
2022-09-15T13:59:15.540Z,11.70
2022-09-15T14:01:45.173Z,11.50
2022-09-15T14:04:30.957Z,11.60
2022-09-15T14:07:01.427Z,11.50
2022-09-15T14:09:37.550Z,11.60
2022-09-15T14:12:16.634Z,11.70
2022-09-15T14:14:54.170Z,11.80
2022-09-15T14:17:30.016Z,12.00
2022-09-15T14:20:00.913Z,12.10
2022-09-15T14:22:31.970Z,12.20
2022-09-15T14:25:04.734Z,12.30
2022-09-15T14:27:34.755Z,12.30
2022-09-15T14:30:08.385Z,12.30
2022-09-15T14:32:40.087Z,12.20
2022-09-15T14:35:09.602Z,12.20
2022-09-15T14:37:36.922Z,12.20
2022-09-15T14:40:23.943Z,12.00
2022-09-15T14:42:51.550Z,11.50
2022-09-15T14:48:18.763Z,11.20
2022-09-15T14:50:54.543Z,11.30
2022-09-15T14:53:25.539Z,11.40
2022-09-15T14:56:12.530Z,11.40
2022-09-15T14:58:52.029Z,11.60
2022-09-15T15:01:19.381Z,11.70
2022-09-15T15:03:54.162Z,11.70
2022-09-15T15:06:56.500Z,11.70
2022-09-15T15:09:30.298Z,11.60
2022-09-15T15:12:04.053Z,11.60
2022-09-15T15:14:31.911Z,11.50
2022-09-15T15:17:03.024Z,11.40
2022-09-15T15:19:34.557Z,11.30
2022-09-15T15:22:29.033Z,11.20
2022-09-15T15:24:56.589Z,11.30
2022-09-15T15:27:33.494Z,11.30
2022-09-15T15:30:30.684Z,11.40
2022-09-15T15:33:02.612Z,11.40
2022-09-15T15:35:31.952Z,11.40
2022-09-15T15:38:11.331Z,11.40
2022-09-15T15:40:40.858Z,11.40
2022-09-15T15:43:14.129Z,11.40
2022-09-15T15:45:57.702Z,11.50
2022-09-15T15:48:26.783Z,11.50
2022-09-15T15:50:54.776Z,11.50
2022-09-15T15:53:22.671Z,11.50
2022-09-15T15:55:50.067Z,11.50
2022-09-15T15:58:17.403Z,11.50
2022-09-15T16:00:51.265Z,11.50
2022-09-15T16:03:20.152Z,11.50
2022-09-15T16:05:50.727Z,11.40
2022-09-15T16:08:29.557Z,11.50
2022-09-15T16:10:58.040Z,11.60
2022-09-15T16:13:25.854Z,11.60
2022-09-15T16:15:54.550Z,11.70
2022-09-15T16:18:21.640Z,11.70
2022-09-15T16:20:48.873Z,11.80
2022-09-15T16:23:19.412Z,11.80
2022-09-15T16:26:05.690Z,11.90
2022-09-15T16:28:32.849Z,12.00
2022-09-15T16:31:00.646Z,12.00
2022-09-15T16:33:27.907Z,12.00
2022-09-15T16:36:07.160Z,12.00
2022-09-15T16:38:35.985Z,12.00
2022-09-15T16:41:04.544Z,12.00
2022-09-15T16:43:31.846Z,12.00
2022-09-15T16:46:02.149Z,12.00
2022-09-15T16:48:29.960Z,12.00
2022-09-15T16:51:23.067Z,12.00
2022-09-15T16:53:48.554Z,12.00
2022-09-15T16:56:17.109Z,12.00
2022-09-15T16:58:44.737Z,12.00
2022-09-15T17:01:20.269Z,12.00
2022-09-15T17:03:50.193Z,12.10
2022-09-15T17:06:18.750Z,12.00
2022-09-15T17:08:45.970Z,12.00
2022-09-15T17:11:18.360Z,12.00
2022-09-15T17:13:49.542Z,11.90
2022-09-15T17:16:19.699Z,11.80
2022-09-15T17:18:47.617Z,11.80
2022-09-15T17:21:19.966Z,11.70
2022-09-15T17:23:50.135Z,11.70
2022-09-15T17:26:20.826Z,11.70
2022-09-15T17:28:48.998Z,11.70
2022-09-15T17:31:20.167Z,11.70
2022-09-15T17:33:49.394Z,11.60
2022-09-15T17:36:17.113Z,11.60
2022-09-15T17:38:45.778Z,11.60
2022-09-15T17:41:18.882Z,11.60
2022-09-15T17:43:46.760Z,11.60
2022-09-15T17:46:14.231Z,11.50
2022-09-15T17:48:41.785Z,11.50
2022-09-15T17:51:15.274Z,11.50
2022-09-15T17:53:43.402Z,11.50
2022-09-15T17:56:10.625Z,11.50
2022-09-15T17:58:37.796Z,11.40
2022-09-15T18:01:05.949Z,11.40
2022-09-15T18:03:37.381Z,11.40
2022-09-15T18:06:07.442Z,11.40
2022-09-15T18:08:36.277Z,11.30
2022-09-15T18:11:05.618Z,11.30
2022-09-15T18:13:34.311Z,11.30
2022-09-15T18:16:12.597Z,11.30
2022-09-15T18:18:41.057Z,11.20
2022-09-15T18:21:10.592Z,11.20
2022-09-15T18:23:39.174Z,11.10
2022-09-15T18:26:06.426Z,11.10
2022-09-15T18:28:33.630Z,11.10
2022-09-15T18:31:01.188Z,11.00
2022-09-15T18:33:28.392Z,10.90
2022-09-15T18:35:59.183Z,10.90
2022-09-15T18:38:26.792Z,10.80
2022-09-15T18:40:56.530Z,10.70
2022-09-15T18:43:26.640Z,10.70
2022-09-15T18:45:59.083Z,10.60
2022-09-15T18:48:26.385Z,10.60
2022-09-15T18:50:53.601Z,10.50
2022-09-15T18:53:21.330Z,10.50
2022-09-15T18:55:48.717Z,10.40
2022-09-15T18:58:15.965Z,10.40
2022-09-15T19:00:45.853Z,10.40
2022-09-15T19:03:14.417Z,10.50
2022-09-15T19:05:41.848Z,10.50
2022-09-15T19:08:09.428Z,10.50
2022-09-15T19:10:39.810Z,10.40
2022-09-15T19:16:12.866Z,10.40
2022-09-15T19:18:43.400Z,10.40
2022-09-15T19:21:13.016Z,10.30
2022-09-15T19:23:40.407Z,10.30
2022-09-15T19:26:15.857Z,10.30
2022-09-15T19:28:44.664Z,10.30
2022-09-15T19:31:12.887Z,10.20
2022-09-15T19:33:40.586Z,10.20
2022-09-15T19:36:28.274Z,10.20
2022-09-15T19:38:56.905Z,10.10
2022-09-15T19:41:24.907Z,10.10
2022-09-15T19:43:53.389Z,10.10
2022-09-15T19:46:24.396Z,10.00
2022-09-15T19:48:52.700Z,10.00
2022-09-15T19:51:21.016Z,9.90
2022-09-15T19:53:48.669Z,9.90
2022-09-15T19:56:18.517Z,9.90
2022-09-15T19:58:46.694Z,9.90
2022-09-15T20:01:14.422Z,9.80
2022-09-15T20:03:41.825Z,9.80
2022-09-15T20:06:09.508Z,9.80
2022-09-15T20:08:38.167Z,9.80
2022-09-15T20:11:07.101Z,9.80
2022-09-15T20:13:39.429Z,9.80
2022-09-15T20:16:07.473Z,9.80
2022-09-15T20:18:39.292Z,9.80
2022-09-15T20:21:14.768Z,9.70
2022-09-15T20:23:49.771Z,9.70
2022-09-15T20:26:18.320Z,9.70
2022-09-15T20:28:46.234Z,9.60
2022-09-15T20:31:16.672Z,9.60
2022-09-15T20:33:46.069Z,9.60
2022-09-15T20:36:19.321Z,9.60
2022-09-15T20:38:47.946Z,9.60
2022-09-15T20:41:17.126Z,9.60
2022-09-15T20:43:44.975Z,9.60
2022-09-15T20:46:14.944Z,9.60
2022-09-15T20:48:42.907Z,9.60
2022-09-15T20:51:22.975Z,9.70
2022-09-15T20:53:52.781Z,9.70
2022-09-15T20:56:24.904Z,9.80
2022-09-15T20:58:53.848Z,9.80
2022-09-15T21:01:26.243Z,9.70
2022-09-15T21:03:55.564Z,9.70
2022-09-15T21:06:25.826Z,9.70
2022-09-15T21:08:54.894Z,9.60
2022-09-15T21:11:24.014Z,9.60
2022-09-15T21:13:51.651Z,9.60
2022-09-15T21:16:21.631Z,9.60
2022-09-15T21:18:50.295Z,9.50
2022-09-15T21:21:21.523Z,9.50
2022-09-15T21:23:51.538Z,9.50
2022-09-15T21:26:27.455Z,9.40
2022-09-15T21:28:56.141Z,9.40
2022-09-15T21:31:26.327Z,9.40
2022-09-15T21:33:56.294Z,9.40
2022-09-15T21:36:26.238Z,9.40
2022-09-15T21:38:56.248Z,9.40
2022-09-15T21:41:26.317Z,9.40
2022-09-15T21:43:55.168Z,9.40
2022-09-15T21:46:25.321Z,9.50
2022-09-15T21:48:52.716Z,9.40
2022-09-15T21:51:24.768Z,9.50
2022-09-15T21:53:56.938Z,9.50
2022-09-15T21:56:25.720Z,9.50
2022-09-15T21:58:52.876Z,9.50
2022-09-15T22:01:29.330Z,9.50
2022-09-15T22:04:01.632Z,9.50
2022-09-15T22:06:34.795Z,9.50
2022-09-15T22:09:05.628Z,9.50
2022-09-15T22:11:33.533Z,9.40
2022-09-15T22:14:01.986Z,9.40
2022-09-15T22:16:29.602Z,9.40
2022-09-15T22:18:57.197Z,9.30
2022-09-15T22:21:31.373Z,9.30
2022-09-15T22:23:59.807Z,9.30
2022-09-15T22:26:34.284Z,9.30
2022-09-15T22:29:02.439Z,9.30
2022-09-15T22:31:29.997Z,9.30
2022-09-15T22:33:57.526Z,9.20
2022-09-15T22:36:30.314Z,9.20
2022-09-15T22:39:10.527Z,9.20
2022-09-15T22:41:39.251Z,9.20
2022-09-15T22:44:07.961Z,9.20
2022-09-15T22:46:35.442Z,9.20
2022-09-15T22:49:03.203Z,9.10
2022-09-15T22:51:30.607Z,9.10
2022-09-15T22:53:58.579Z,9.10
2022-09-15T22:56:26.631Z,9.10
2022-09-15T22:58:54.901Z,9.10
2022-09-15T23:01:24.955Z,9.20
2022-09-15T23:03:54.240Z,9.20
2022-09-15T23:06:22.167Z,9.20
2022-09-15T23:08:54.148Z,9.20
2022-09-15T23:11:21.738Z,9.20
2022-09-15T23:13:50.099Z,9.20
2022-09-15T23:16:18.491Z,9.10
2022-09-15T23:18:48.578Z,9.10
2022-09-15T23:21:19.812Z,9.10
2022-09-15T23:23:48.964Z,9.00
2022-09-15T23:26:18.587Z,9.00
2022-09-15T23:28:46.075Z,9.00
2022-09-15T23:31:13.933Z,9.00
2022-09-15T23:33:41.837Z,9.00
2022-09-15T23:36:14.919Z,8.90
2022-09-15T23:38:44.554Z,8.90
2022-09-15T23:41:12.829Z,9.00
2022-09-15T23:43:40.554Z,9.00
2022-09-15T23:46:07.731Z,9.00
2022-09-15T23:48:35.200Z,9.10
2022-09-15T23:51:02.803Z,9.00
2022-09-15T23:53:30.515Z,9.00
2022-09-15T23:55:57.677Z,9.00
2022-09-15T23:58:24.884Z,9.00
